Weather at Kelly Airport [CLOSED]

Public forecast

Using degrees Fahrenheit for public forecast. Weather courtesy of forecast.io.

Closest aviation weather report (METAR) to Kelly Airport

Closest report is Monroe Municipal Airport, 10.0 nm (18.5 km) ESE. Retrieved 2021/06/23 02:55 UTC (18 minutes ago):

KEFT 230255Z AUTO 17006KT 10SM BKN060 OVC075 18/09 A2994 RMK AO2 T01840092

Closest aviation forecast (TAF) to Kelly Airport

Closest forecast is Dane County Regional Truax Field, 33.1 nm (61.3 km) NE. Retrieved 2021-06-23 00:33 UTC (3 hours ago):

TAF KMSN 222330Z 2300/2324 VRB04KT P6SM BKN080 TEMPO 2300/2304 17005KT SCT080 FM230400 14005KT P6SM BKN080 FM230800 18007KT P6SM VCSH BKN045 FM231200 19008KT P6SM VCSH BKN025 FM231600 19012G20KT P6SM BKN050